createdAt,value
2022-12-17T00:00:15.413Z,17
2022-12-17T00:02:41.753Z,17
2022-12-17T00:05:07.823Z,19
2022-12-17T00:07:34.023Z,18
2022-12-17T00:10:00.289Z,17
2022-12-17T00:12:26.525Z,17
2022-12-17T00:14:53.641Z,17
2022-12-17T00:17:19.007Z,18
2022-12-17T00:19:45.261Z,17
2022-12-17T00:22:11.462Z,16
2022-12-17T00:24:37.686Z,16
2022-12-17T00:27:03.904Z,16
2022-12-17T00:29:30.219Z,17
2022-12-17T00:31:56.480Z,16
2022-12-17T00:34:22.686Z,17
2022-12-17T00:36:48.919Z,17
2022-12-17T00:39:15.240Z,17
2022-12-17T00:41:41.374Z,17
2022-12-17T00:44:07.650Z,16
2022-12-17T00:46:33.874Z,17
2022-12-17T00:49:00.115Z,16
2022-12-17T00:51:26.315Z,16
2022-12-17T00:53:52.596Z,16
2022-12-17T00:56:18.811Z,15
2022-12-17T00:58:45.078Z,15
2022-12-17T01:01:11.416Z,17
2022-12-17T01:03:37.950Z,16
2022-12-17T01:06:03.780Z,16
2022-12-17T01:08:30.053Z,15
2022-12-17T01:10:56.321Z,16
2022-12-17T01:13:22.502Z,15
2022-12-17T01:15:48.743Z,16
2022-12-17T01:18:14.977Z,16
2022-12-17T01:20:41.260Z,16
2022-12-17T01:23:07.516Z,15
2022-12-17T01:25:33.756Z,14
2022-12-17T01:27:59.982Z,15
2022-12-17T01:30:26.188Z,15
2022-12-17T01:32:52.456Z,15
2022-12-17T01:35:18.680Z,15
2022-12-17T01:37:44.954Z,14
2022-12-17T01:40:11.195Z,15
2022-12-17T01:42:37.452Z,14
2022-12-17T01:45:03.697Z,15
2022-12-17T01:47:29.966Z,15
2022-12-17T01:49:56.161Z,15
2022-12-17T01:52:22.399Z,14
2022-12-17T01:54:48.639Z,14
2022-12-17T01:57:14.898Z,14
2022-12-17T01:59:41.111Z,14
2022-12-17T02:02:07.488Z,14
2022-12-17T02:04:33.600Z,14
2022-12-17T02:06:59.846Z,13
2022-12-17T02:09:26.094Z,14
2022-12-17T02:11:52.351Z,14
2022-12-17T02:14:18.569Z,13
2022-12-17T02:16:44.886Z,13
2022-12-17T02:19:11.131Z,13
2022-12-17T02:21:37.381Z,14
2022-12-17T02:24:03.615Z,13
2022-12-17T02:26:29.915Z,14
2022-12-17T02:28:56.110Z,13
2022-12-17T02:31:22.417Z,14
2022-12-17T02:33:48.622Z,13
2022-12-17T02:36:14.899Z,13
2022-12-17T02:38:41.099Z,13
2022-12-17T02:41:07.335Z,14
2022-12-17T02:43:33.939Z,14
2022-12-17T02:45:59.846Z,13
2022-12-17T02:48:25.998Z,14
2022-12-17T02:50:52.223Z,13
2022-12-17T02:53:18.456Z,14
2022-12-17T02:55:44.720Z,14
2022-12-17T02:58:10.915Z,14
2022-12-17T03:00:37.178Z,14
2022-12-17T03:03:03.458Z,14
2022-12-17T03:05:45.012Z,14
2022-12-17T03:07:55.871Z,14
2022-12-17T03:10:22.105Z,14
2022-12-17T03:12:48.315Z,15
2022-12-17T03:15:14.560Z,14
2022-12-17T03:17:40.777Z,14
2022-12-17T03:20:07.059Z,14
2022-12-17T03:22:33.291Z,14
2022-12-17T03:24:59.506Z,14
2022-12-17T03:27:25.771Z,14
2022-12-17T03:29:52.032Z,15
2022-12-17T03:32:18.273Z,15
2022-12-17T03:34:44.646Z,15
2022-12-17T03:37:10.883Z,15
2022-12-17T03:39:37.132Z,14
2022-12-17T03:42:03.333Z,14
2022-12-17T03:44:29.611Z,14
2022-12-17T03:46:55.848Z,15
2022-12-17T03:49:22.068Z,14
2022-12-17T03:51:48.267Z,14
2022-12-17T03:54:14.530Z,15
2022-12-17T03:56:40.737Z,15
2022-12-17T03:59:06.994Z,14
2022-12-17T04:01:33.336Z,15
2022-12-17T04:03:59.426Z,15
2022-12-17T04:06:25.699Z,15
2022-12-17T04:08:51.905Z,15
2022-12-17T04:11:18.146Z,14
2022-12-17T04:13:44.666Z,15
2022-12-17T04:16:10.666Z,16
2022-12-17T04:18:36.828Z,15
2022-12-17T04:21:03.062Z,15
2022-12-17T04:23:29.318Z,15
2022-12-17T04:25:55.633Z,16
2022-12-17T04:28:21.872Z,16
2022-12-17T04:30:48.208Z,16
2022-12-17T04:33:14.380Z,15
2022-12-17T04:35:40.613Z,17
2022-12-17T04:38:06.858Z,15
2022-12-17T04:40:33.179Z,15
2022-12-17T04:42:59.425Z,16
2022-12-17T04:45:25.694Z,15
2022-12-17T04:47:51.969Z,15
2022-12-17T04:50:18.233Z,16
2022-12-17T04:52:44.468Z,15
2022-12-17T04:55:10.682Z,15
2022-12-17T04:57:36.904Z,15
2022-12-17T05:00:03.175Z,16
2022-12-17T05:02:29.592Z,15
2022-12-17T05:04:55.667Z,15
2022-12-17T05:07:21.921Z,15
2022-12-17T05:09:48.180Z,15
2022-12-17T05:12:14.424Z,15
2022-12-17T05:14:40.685Z,15
2022-12-17T05:17:06.921Z,15
2022-12-17T05:19:33.192Z,15
2022-12-17T05:21:59.383Z,16
2022-12-17T05:24:25.660Z,15
2022-12-17T05:26:51.907Z,15
2022-12-17T05:29:18.135Z,15
2022-12-17T05:31:44.444Z,15
2022-12-17T05:34:10.643Z,15
2022-12-17T05:36:36.910Z,15
2022-12-17T05:39:03.165Z,15
2022-12-17T05:41:29.360Z,15
2022-12-17T05:43:55.606Z,15
2022-12-17T05:46:21.894Z,15
2022-12-17T05:48:48.105Z,15
2022-12-17T05:51:14.350Z,14
2022-12-17T05:53:40.612Z,14
2022-12-17T05:56:06.886Z,14
2022-12-17T05:58:33.070Z,14
2022-12-17T06:00:59.276Z,14
2022-12-17T06:03:25.608Z,15
2022-12-17T06:05:51.774Z,14
2022-12-17T06:08:17.990Z,14
2022-12-17T06:10:44.252Z,14
2022-12-17T06:13:10.482Z,14
2022-12-17T06:15:36.684Z,13
2022-12-17T06:18:02.929Z,14
2022-12-17T06:20:29.197Z,13
2022-12-17T06:22:55.467Z,13
2022-12-17T06:25:21.697Z,13
2022-12-17T06:27:47.978Z,14
2022-12-17T06:30:18.469Z,13
2022-12-17T06:32:40.516Z,13
2022-12-17T06:35:06.746Z,13
2022-12-17T06:37:32.956Z,13
2022-12-17T06:39:59.210Z,13
2022-12-17T06:42:25.432Z,13
2022-12-17T06:44:51.658Z,13
2022-12-17T06:47:17.959Z,13
2022-12-17T06:49:44.174Z,13
2022-12-17T06:52:10.508Z,12
2022-12-17T06:54:36.688Z,12
2022-12-17T06:57:02.959Z,12
2022-12-17T06:59:29.176Z,12
2022-12-17T07:01:55.493Z,12
2022-12-17T07:04:21.680Z,12
2022-12-17T07:06:48.162Z,12
2022-12-17T07:09:14.331Z,12
2022-12-17T07:11:40.621Z,12
2022-12-17T07:14:06.775Z,12
2022-12-17T07:16:33.132Z,12
2022-12-17T07:18:59.282Z,12
2022-12-17T07:21:25.516Z,12
2022-12-17T07:23:51.736Z,12
2022-12-17T07:26:18.043Z,11
2022-12-17T07:28:44.207Z,12
2022-12-17T07:31:10.478Z,12
2022-12-17T07:33:37.023Z,11
2022-12-17T07:36:02.919Z,11
2022-12-17T07:38:29.162Z,12
2022-12-17T07:40:55.420Z,11
2022-12-17T07:43:21.624Z,11
2022-12-17T07:45:47.910Z,11
2022-12-17T07:48:14.114Z,11
2022-12-17T07:50:40.331Z,11
2022-12-17T07:53:06.535Z,11
2022-12-17T07:55:32.859Z,11
2022-12-17T07:57:59.064Z,11
2022-12-17T08:00:25.405Z,11
2022-12-17T08:02:51.728Z,11
2022-12-17T08:05:17.898Z,11
2022-12-17T08:07:44.055Z,11
2022-12-17T08:10:10.328Z,11
2022-12-17T08:12:36.578Z,11
2022-12-17T08:15:02.832Z,11
2022-12-17T08:17:29.077Z,11
2022-12-17T08:19:55.268Z,13
2022-12-17T08:22:21.524Z,11
2022-12-17T08:24:47.756Z,10
2022-12-17T08:27:13.989Z,11
2022-12-17T08:29:40.243Z,10
2022-12-17T08:32:06.479Z,11
2022-12-17T08:34:32.733Z,10
2022-12-17T08:36:58.986Z,11
2022-12-17T08:39:25.217Z,12
2022-12-17T08:41:54.897Z,10
2022-12-17T08:44:17.735Z,11
2022-12-17T08:46:43.926Z,11
2022-12-17T08:49:10.187Z,11
2022-12-17T08:51:36.458Z,11
2022-12-17T08:54:02.705Z,10
2022-12-17T08:56:28.916Z,11
2022-12-17T08:58:59.059Z,11
2022-12-17T09:01:21.459Z,11
2022-12-17T09:03:47.756Z,11
2022-12-17T09:06:13.939Z,10
2022-12-17T09:08:40.252Z,10
2022-12-17T09:11:06.461Z,10
2022-12-17T09:13:32.862Z,11
2022-12-17T09:15:58.978Z,11
2022-12-17T09:18:25.240Z,11
2022-12-17T09:20:51.450Z,11
2022-12-17T09:23:17.682Z,11
2022-12-17T09:25:45.046Z,11
2022-12-17T09:28:11.351Z,10
2022-12-17T09:30:37.589Z,12
2022-12-17T09:33:03.841Z,14
2022-12-17T09:35:30.097Z,15
2022-12-17T09:37:56.423Z,16
2022-12-17T09:40:22.707Z,16
2022-12-17T09:42:52.488Z,17
2022-12-17T09:45:15.149Z,21
2022-12-17T09:47:41.401Z,21
2022-12-17T09:50:07.653Z,31
2022-12-17T09:52:33.879Z,98
2022-12-17T09:55:01.584Z,112
2022-12-17T09:57:26.368Z,157
2022-12-17T09:59:52.642Z,164
2022-12-17T10:02:19.153Z,169
2022-12-17T10:04:45.164Z,166
2022-12-17T10:07:11.393Z,158
2022-12-17T10:09:37.608Z,165
2022-12-17T10:12:03.879Z,166
2022-12-17T10:14:30.093Z,167
2022-12-17T10:16:56.391Z,166
2022-12-17T10:19:22.594Z,163
2022-12-17T10:21:49.279Z,177
2022-12-17T10:24:18.534Z,172
2022-12-17T10:26:41.736Z,88
2022-12-17T10:29:07.945Z,46
2022-12-17T10:31:34.336Z,76
2022-12-17T10:34:00.481Z,73
2022-12-17T10:36:26.777Z,78
2022-12-17T10:38:53.041Z,72
2022-12-17T10:41:19.282Z,78
2022-12-17T10:43:45.599Z,84
2022-12-17T10:46:11.864Z,82
2022-12-17T10:48:38.021Z,81
2022-12-17T10:51:04.250Z,81
2022-12-17T10:53:30.655Z,84
2022-12-17T10:55:56.891Z,81
2022-12-17T10:58:23.181Z,80
2022-12-17T11:00:50.603Z,78
2022-12-17T11:03:15.803Z,79
2022-12-17T11:05:41.991Z,80
2022-12-17T11:08:08.210Z,82
2022-12-17T11:10:34.443Z,79
2022-12-17T11:13:00.647Z,79
2022-12-17T11:15:26.918Z,79
2022-12-17T11:17:53.115Z,80
2022-12-17T11:20:19.349Z,82
2022-12-17T11:22:45.587Z,80
2022-12-17T11:25:11.853Z,78
2022-12-17T11:27:38.068Z,76
2022-12-17T11:30:04.300Z,73
2022-12-17T11:32:30.705Z,76
2022-12-17T11:34:56.977Z,74
2022-12-17T11:37:23.249Z,72
2022-12-17T11:39:49.508Z,77
2022-12-17T11:42:15.759Z,70
2022-12-17T11:44:42.025Z,71
2022-12-17T11:47:08.256Z,74
2022-12-17T11:49:34.533Z,68
2022-12-17T11:52:00.779Z,69
2022-12-17T11:54:27.003Z,67
2022-12-17T11:56:53.251Z,64
2022-12-17T11:59:19.534Z,65
2022-12-17T12:01:45.865Z,65
2022-12-17T12:04:12.124Z,61
2022-12-17T12:06:38.295Z,61
2022-12-17T12:09:04.520Z,61
2022-12-17T12:11:31.930Z,60
2022-12-17T12:13:56.971Z,59
2022-12-17T12:16:23.219Z,56
2022-12-17T12:18:49.424Z,56
2022-12-17T12:21:15.626Z,56
2022-12-17T12:23:41.894Z,56
2022-12-17T12:26:08.175Z,54
2022-12-17T12:28:34.631Z,44
2022-12-17T12:31:00.657Z,23
2022-12-17T12:33:28.147Z,32
2022-12-17T12:35:53.166Z,35
2022-12-17T12:38:19.386Z,36
2022-12-17T12:40:45.748Z,35
2022-12-17T12:43:11.949Z,36
2022-12-17T12:45:38.167Z,37
2022-12-17T12:48:04.383Z,37
2022-12-17T12:50:30.642Z,35
2022-12-17T12:52:56.913Z,35
2022-12-17T12:55:23.156Z,35
2022-12-17T12:57:49.430Z,35
2022-12-17T13:00:15.637Z,38
2022-12-17T13:02:42.116Z,37
2022-12-17T13:05:08.232Z,38
2022-12-17T13:07:34.452Z,36
2022-12-17T13:10:00.826Z,36
2022-12-17T13:12:27.075Z,35
2022-12-17T13:14:53.282Z,36
2022-12-17T13:17:19.546Z,37
2022-12-17T13:19:45.822Z,35
2022-12-17T13:22:12.078Z,37
2022-12-17T13:24:38.297Z,37
2022-12-17T13:27:04.565Z,38
2022-12-17T13:29:30.845Z,39
2022-12-17T13:31:57.104Z,37
2022-12-17T13:34:23.282Z,40
2022-12-17T13:36:49.592Z,38
2022-12-17T13:39:15.839Z,41
2022-12-17T13:41:42.069Z,41
2022-12-17T13:44:08.274Z,41
2022-12-17T13:46:34.553Z,41
2022-12-17T13:49:00.748Z,45
2022-12-17T13:51:27.023Z,43
2022-12-17T13:53:53.284Z,46
2022-12-17T13:56:19.554Z,46
2022-12-17T13:58:50.697Z,46
2022-12-17T14:01:12.123Z,49
2022-12-17T14:04:07.153Z,45
2022-12-17T14:06:04.565Z,47
2022-12-17T14:08:30.835Z,48
2022-12-17T14:10:57.050Z,48
2022-12-17T14:13:23.341Z,56
2022-12-17T14:15:49.613Z,57
2022-12-17T14:18:15.852Z,55
2022-12-17T14:20:42.080Z,56
2022-12-17T14:23:08.332Z,55
2022-12-17T14:25:34.792Z,55
2022-12-17T14:28:01.015Z,58
2022-12-17T14:30:27.231Z,58
2022-12-17T14:32:53.527Z,61
2022-12-17T14:35:19.747Z,61
2022-12-17T14:37:46.012Z,65
2022-12-17T14:40:12.212Z,62
2022-12-17T14:42:38.445Z,61
2022-12-17T14:45:04.654Z,61
2022-12-17T14:47:30.878Z,61
2022-12-17T14:49:57.477Z,60
2022-12-17T14:52:23.734Z,61
2022-12-17T14:54:49.934Z,60
2022-12-17T14:57:16.188Z,59
2022-12-17T14:59:42.398Z,64
2022-12-17T15:02:08.780Z,59
2022-12-17T15:04:34.952Z,57
2022-12-17T15:07:01.226Z,57
2022-12-17T15:09:27.499Z,58
2022-12-17T15:11:53.733Z,58
2022-12-17T15:14:19.946Z,56
2022-12-17T15:16:46.290Z,57
2022-12-17T15:19:12.440Z,59
2022-12-17T15:21:38.674Z,56
2022-12-17T15:24:04.937Z,56
2022-12-17T15:26:31.227Z,54
2022-12-17T15:28:57.418Z,57
2022-12-17T15:31:26.099Z,54
2022-12-17T15:33:49.868Z,53
2022-12-17T15:36:16.174Z,53
2022-12-17T15:38:42.414Z,51
2022-12-17T15:41:08.678Z,51
2022-12-17T15:43:34.919Z,52
2022-12-17T15:46:01.196Z,52
2022-12-17T15:48:27.350Z,50
2022-12-17T15:50:53.573Z,50
2022-12-17T15:53:19.862Z,49
2022-12-17T15:55:46.095Z,48
2022-12-17T15:58:12.357Z,49
2022-12-17T16:00:38.568Z,50
2022-12-17T16:03:04.873Z,48
2022-12-17T16:05:30.999Z,46
2022-12-17T16:07:57.204Z,47
2022-12-17T16:10:23.468Z,45
2022-12-17T16:12:49.730Z,49
2022-12-17T16:15:16.032Z,46
2022-12-17T16:17:42.286Z,44
2022-12-17T16:20:08.562Z,47
2022-12-17T16:22:34.780Z,44
2022-12-17T16:25:01.004Z,43
2022-12-17T16:27:27.261Z,43
2022-12-17T16:29:53.529Z,42
2022-12-17T16:32:19.751Z,42
2022-12-17T16:34:45.979Z,42
2022-12-17T16:37:12.247Z,40
2022-12-17T16:39:38.479Z,42
2022-12-17T16:42:04.740Z,40
2022-12-17T16:44:31.037Z,39
2022-12-17T16:46:57.320Z,38
2022-12-17T16:49:23.519Z,39
2022-12-17T16:51:49.835Z,39
2022-12-17T16:54:16.055Z,39
2022-12-17T16:56:42.284Z,40
2022-12-17T16:59:08.565Z,38
2022-12-17T17:01:34.901Z,38
2022-12-17T17:04:01.183Z,36
2022-12-17T17:06:31.819Z,38
2022-12-17T17:08:53.622Z,36
2022-12-17T17:11:19.860Z,35
2022-12-17T17:13:46.096Z,35
2022-12-17T17:16:12.386Z,37
2022-12-17T17:18:39.047Z,37
2022-12-17T17:21:04.865Z,34
2022-12-17T17:23:31.127Z,34
2022-12-17T17:25:58.705Z,35
2022-12-17T17:28:23.563Z,33
2022-12-17T17:30:49.875Z,34
2022-12-17T17:33:16.205Z,34
2022-12-17T17:35:42.414Z,33
2022-12-17T17:38:08.762Z,33
2022-12-17T17:40:35.003Z,34
2022-12-17T17:43:01.267Z,33
2022-12-17T17:45:27.547Z,35
2022-12-17T17:47:53.845Z,33
2022-12-17T17:50:20.073Z,34
2022-12-17T17:52:46.303Z,33
2022-12-17T17:55:12.506Z,33
2022-12-17T17:57:38.743Z,33
2022-12-17T18:00:05.041Z,35
2022-12-17T18:02:31.493Z,33
2022-12-17T18:04:57.530Z,32
2022-12-17T18:07:25.626Z,33
2022-12-17T18:09:50.037Z,33
2022-12-17T18:12:16.303Z,34
2022-12-17T18:15:12.165Z,33
2022-12-17T18:17:08.841Z,33
2022-12-17T18:19:35.118Z,33
2022-12-17T18:22:01.390Z,33
2022-12-17T18:24:27.631Z,33
2022-12-17T18:26:53.890Z,33
2022-12-17T18:29:20.154Z,33
2022-12-17T18:31:51.490Z,35
2022-12-17T18:34:12.701Z,34
2022-12-17T18:36:38.941Z,34
2022-12-17T18:39:05.150Z,33
2022-12-17T18:41:31.408Z,33
2022-12-17T18:43:57.646Z,33
2022-12-17T18:46:23.995Z,33
2022-12-17T18:48:50.146Z,36
2022-12-17T18:51:16.372Z,33
2022-12-17T18:53:42.649Z,33
2022-12-17T18:56:08.872Z,34
2022-12-17T18:58:35.766Z,33
2022-12-17T19:01:01.681Z,34
2022-12-17T19:03:28.256Z,35
2022-12-17T19:05:54.613Z,36
2022-12-17T19:08:20.793Z,39
2022-12-17T19:10:49.493Z,39
2022-12-17T19:13:15.695Z,39
2022-12-17T19:15:41.981Z,43
2022-12-17T19:18:08.200Z,42
2022-12-17T19:20:34.500Z,48
2022-12-17T19:23:00.724Z,44
2022-12-17T19:25:26.992Z,47
2022-12-17T19:27:53.237Z,48
2022-12-17T19:30:19.483Z,49
2022-12-17T19:32:45.767Z,50
2022-12-17T19:35:12.050Z,49
2022-12-17T19:37:38.250Z,50
2022-12-17T19:40:04.518Z,52
2022-12-17T19:42:37.139Z,53
2022-12-17T19:44:56.949Z,50
2022-12-17T19:47:23.279Z,49
2022-12-17T19:49:49.486Z,56
2022-12-17T19:52:15.731Z,51
2022-12-17T19:54:42.274Z,51
2022-12-17T19:57:08.508Z,52
2022-12-17T19:59:34.844Z,51
2022-12-17T20:02:01.286Z,52
2022-12-17T20:04:27.352Z,51
2022-12-17T20:06:53.592Z,50
2022-12-17T20:09:19.862Z,50
2022-12-17T20:11:46.086Z,51
2022-12-17T20:14:12.331Z,51
2022-12-17T20:16:38.635Z,49
2022-12-17T20:19:04.825Z,50
2022-12-17T20:21:31.082Z,50
2022-12-17T20:23:57.314Z,49
2022-12-17T20:26:23.532Z,53
2022-12-17T20:28:49.783Z,52
2022-12-17T20:31:16.087Z,48
2022-12-17T20:33:42.304Z,49
2022-12-17T20:36:08.563Z,48
2022-12-17T20:38:34.807Z,49
2022-12-17T20:41:01.140Z,48
2022-12-17T20:43:27.400Z,48
2022-12-17T20:45:53.680Z,47
2022-12-17T20:48:19.919Z,47
2022-12-17T20:50:46.170Z,46
2022-12-17T20:53:12.400Z,47
2022-12-17T20:55:38.617Z,46
2022-12-17T20:58:04.903Z,45
2022-12-17T21:00:31.137Z,45
2022-12-17T21:02:57.588Z,44
2022-12-17T21:05:23.702Z,45
2022-12-17T21:07:49.991Z,45
2022-12-17T21:10:16.201Z,45
2022-12-17T21:12:42.466Z,45
2022-12-17T21:15:08.706Z,42
2022-12-17T21:17:34.959Z,44
2022-12-17T21:20:06.102Z,43
2022-12-17T21:22:27.507Z,44
2022-12-17T21:24:53.755Z,42
2022-12-17T21:27:20.024Z,41
2022-12-17T21:29:46.225Z,42
2022-12-17T21:32:12.460Z,41
2022-12-17T21:34:38.664Z,41
2022-12-17T21:37:04.937Z,42
2022-12-17T21:39:31.180Z,41
2022-12-17T21:41:57.401Z,41
2022-12-17T21:44:23.642Z,40
2022-12-17T21:46:50.521Z,39
2022-12-17T21:49:16.166Z,40
2022-12-17T21:51:42.472Z,40
2022-12-17T21:54:10.680Z,39
2022-12-17T21:56:35.038Z,40
2022-12-17T21:59:01.283Z,38
2022-12-17T22:01:27.665Z,40
2022-12-17T22:03:54.445Z,38
2022-12-17T22:06:20.032Z,37
2022-12-17T22:08:46.277Z,37
2022-12-17T22:11:12.542Z,38
2022-12-17T22:13:38.918Z,38
2022-12-17T22:16:08.434Z,37
2022-12-17T22:18:33.355Z,37
2022-12-17T22:20:59.585Z,41
2022-12-17T22:23:25.852Z,36
2022-12-17T22:25:52.102Z,36
2022-12-17T22:28:18.381Z,33
2022-12-17T22:30:44.713Z,26
2022-12-17T22:33:26.768Z,28
2022-12-17T22:36:57.603Z,27
2022-12-17T22:40:42.380Z,26
2022-12-17T22:44:35.117Z,26
2022-12-17T22:44:40.881Z,26
2022-12-17T22:45:23.750Z,26
2022-12-17T22:47:48.803Z,25
2022-12-17T22:50:15.119Z,27
2022-12-17T22:52:41.379Z,25
2022-12-17T22:55:07.711Z,24
2022-12-17T22:57:37.424Z,24
2022-12-17T23:00:04.289Z,25
2022-12-17T23:02:29.254Z,26
2022-12-17T23:04:55.484Z,25
2022-12-17T23:07:25.620Z,24
2022-12-17T23:09:48.116Z,25
2022-12-17T23:12:14.275Z,23
2022-12-17T23:14:40.507Z,21
2022-12-17T23:17:06.736Z,22
2022-12-17T23:19:32.951Z,22
2022-12-17T23:21:59.171Z,21
2022-12-17T23:24:25.455Z,21
2022-12-17T23:26:51.765Z,21
2022-12-17T23:29:19.795Z,21
2022-12-17T23:31:44.305Z,21
2022-12-17T23:34:10.472Z,21
2022-12-17T23:36:36.720Z,21
2022-12-17T23:39:03.005Z,21
2022-12-17T23:41:29.211Z,21
2022-12-17T23:43:55.494Z,20
2022-12-17T23:46:21.846Z,21
2022-12-17T23:48:48.013Z,20
2022-12-17T23:51:14.353Z,21
2022-12-17T23:53:40.848Z,20
2022-12-17T23:56:06.760Z,21
2022-12-17T23:58:33.006Z,20
